Time;durP1;ratioP1;P1;durP2;ratioP2;P2;SDS_P1;SDS_P2;PMS_P1;PMS_P2;Temp;Humidity;BMP_temperature;BMP_pressure;BME280_temperature;BME280_humidity;BME280_pressure;Samples;Min_cycle;Max_cycle;Signal;HPM_P1;HPM_P2
2024/02/11 00:00:37;;;;;;;14.18;7.80;;;8.20;99.90;;;-144.05;87.13;57018.75;5025977;28;20117;-82
2024/02/11 00:03:04;;;;;;;13.63;8.85;;;;;;;-144.05;87.80;57012.38;5029223;28;20057;-80
2024/02/11 00:05:31;;;;;;;12.23;8.35;;;;;;;-144.05;87.37;57027.25;5012968;28;20419;-83
2024/02/11 00:07:57;;;;;;;12.07;8.65;;;;;;;-144.05;87.72;56997.50;5012105;28;20376;-82
2024/02/11 00:10:25;;;;;;;14.38;7.88;;;;;;;-144.05;87.71;57035.75;5011506;28;20518;-78
2024/02/11 00:12:51;;;;;;;10.80;7.75;;;8.70;99.90;;;-144.05;87.93;56999.63;5013076;28;20511;-81
2024/02/11 00:15:17;;;;;;;11.80;7.38;;;;;;;-144.05;87.86;57018.75;5012805;28;20069;-81
2024/02/11 00:17:45;;;;;;;10.40;7.88;;;7.70;99.90;;;-144.05;88.30;57018.75;5014370;28;20182;-82
2024/02/11 00:20:13;;;;;;;11.65;8.68;;;8.20;99.90;;;-144.05;88.20;57020.88;5014816;28;20022;-81
2024/02/11 00:22:40;;;;;;;11.35;7.95;;;10.50;99.90;;;-144.05;88.46;57010.25;5012104;28;20025;-82
2024/02/11 00:25:09;;;;;;;13.50;9.75;;;7.80;99.90;;;-144.05;88.74;57006.00;5019819;28;20025;-79
2024/02/11 00:27:39;;;;;;;12.75;9.25;;;10.70;99.90;;;-144.05;88.66;57027.25;5016669;28;20101;-82
2024/02/11 00:30:07;;;;;;;12.48;9.73;;;8.70;99.90;;;-144.05;88.84;57027.25;5011885;28;20026;-82
2024/02/11 00:32:33;;;;;;;15.70;11.00;;;11.20;99.90;;;-144.05;89.03;57001.75;5014766;28;20018;-79
2024/02/11 00:34:59;;;;;;;16.35;11.02;;;7.60;99.90;;;-144.05;88.79;57010.25;5011324;28;20075;-81
2024/02/11 00:37:29;;;;;;;12.98;9.95;;;10.80;99.90;;;-144.05;88.94;56995.38;5011997;28;20088;-81
2024/02/11 00:39:58;;;;;;;12.70;9.45;;;11.00;99.90;;;-144.05;89.31;57044.25;5011790;28;20029;-81
2024/02/11 00:42:27;;;;;;;15.50;10.85;;;;;;;-144.05;89.28;56993.25;5011608;28;20022;-79
2024/02/11 00:44:54;;;;;;;16.38;9.63;;;8.40;99.90;;;-144.05;89.04;57006.00;5011873;28;20022;-81
2024/02/11 00:47:22;;;;;;;13.32;9.05;;;11.00;99.90;;;-144.05;89.12;57031.50;5011566;28;20026;-80
2024/02/11 00:49:48;;;;;;;9.90;7.82;;;7.50;99.90;;;-144.05;88.88;57018.75;5027118;28;20033;-78
2024/02/11 00:52:15;;;;;;;13.25;7.40;;;7.20;99.90;;;-144.05;88.89;57025.13;5012202;28;20022;-80
2024/02/11 00:54:42;;;;;;;10.82;6.40;;;9.20;99.90;;;-144.05;89.30;57023.00;5012134;28;20391;-79
2024/02/11 00:57:08;;;;;;;9.50;6.53;;;9.30;99.90;;;-144.05;89.31;57014.50;5010574;28;20029;-81
2024/02/11 00:59:34;;;;;;;8.88;6.50;;;7.70;99.90;;;-144.05;89.28;57006.00;5011865;28;20475;-81
2024/02/11 01:02:01;;;;;;;11.20;7.47;;;7.70;99.90;;;-144.05;89.56;57010.25;5014770;28;20033;-79
2024/02/11 01:04:28;;;;;;;9.05;6.75;;;;;;;-144.05;89.49;57014.50;5015887;28;20402;-79
2024/02/11 01:06:57;;;;;;;12.70;8.30;;;7.50;99.90;;;-144.05;89.63;56997.50;5018526;28;20052;-81
2024/02/11 01:09:25;;;;;;;11.35;8.30;;;7.50;99.90;;;-144.05;89.68;57031.50;5021050;28;20018;-82
2024/02/11 01:11:51;;;;;;;11.80;8.45;;;7.40;99.90;;;-144.05;89.74;57025.13;5022003;28;20084;-83
2024/02/11 01:14:21;;;;;;;11.75;7.45;;;8.70;99.90;;;-144.05;89.76;57025.13;5029497;28;20026;-81
2024/02/11 01:16:47;;;;;;;14.48;8.63;;;;;;;-144.05;89.99;57014.50;5023201;28;20041;-82
2024/02/11 01:19:13;;;;;;;15.38;9.27;;;8.60;99.90;;;-144.05;90.06;57025.13;5017228;28;20018;-83
2024/02/11 01:21:39;;;;;;;15.20;10.60;;;;;;;-144.05;90.03;57006.00;5032364;28;20114;-82
2024/02/11 01:24:05;;;;;;;14.30;10.18;;;9.20;99.90;;;-144.05;90.09;56997.50;5021055;28;20057;-81
2024/02/11 01:26:31;;;;;;;15.57;10.15;;;9.10;99.90;;;-144.05;90.11;57040.00;5018337;28;20017;-81
2024/02/11 01:28:57;;;;;;;13.90;10.35;;;7.80;99.90;;;-144.05;90.21;56984.78;5019314;28;20530;-80
2024/02/11 01:31:23;;;;;;;14.90;9.95;;;;;;;-144.05;89.85;57008.13;5016099;28;20036;-79
2024/02/11 01:33:52;;;;;;;10.88;7.75;;;8.10;99.90;;;-144.05;89.79;57025.13;5016401;28;20093;-81
2024/02/11 01:36:17;;;;;;;13.35;8.10;;;7.70;99.90;;;-144.05;89.82;56991.13;5024395;28;20021;-80
2024/02/11 01:38:43;;;;;;;13.77;8.30;;;8.90;99.90;;;-144.05;90.23;57016.63;5019363;28;20057;-80
2024/02/11 01:41:09;;;;;;;16.40;10.25;;;;;;;-144.05;90.50;57006.00;5014484;28;20095;-81
2024/02/11 01:43:35;;;;;;;13.35;9.82;;;7.50;99.90;;;-144.05;90.78;57008.13;5013162;28;20041;-79
2024/02/11 01:46:02;;;;;;;16.88;9.45;;;8.70;99.90;;;-144.05;90.70;57025.13;5014370;28;20029;-81
2024/02/11 01:48:30;;;;;;;16.13;9.75;;;;;;;-144.05;90.74;56999.63;5014455;28;20026;-80
2024/02/11 01:50:57;;;;;;;13.88;10.38;;;9.20;99.90;;;-144.05;90.70;57023.00;5029130;28;20034;-80
2024/02/11 01:53:27;;;;;;;15.85;10.20;;;7.30;99.90;;;-144.05;90.88;57012.38;5013941;28;20033;-80
2024/02/11 01:55:55;;;;;;;16.77;11.43;;;8.40;99.90;;;-144.05;90.84;56967.78;5013940;28;20026;-79
2024/02/11 01:58:22;;;;;;;13.82;9.20;;;10.40;99.90;;;-144.05;90.74;57012.38;5014128;28;20507;-80
2024/02/11 02:00:49;;;;;;;13.70;10.73;;;7.10;99.90;;;-144.05;90.77;57014.50;5014000;28;20030;-80
2024/02/11 02:03:17;;;;;;;15.10;10.75;;;7.80;99.90;;;-144.05;90.77;56991.13;5012984;28;20483;-81
2024/02/11 02:05:43;;;;;;;14.48;10.73;;;7.50;99.90;;;-144.05;90.90;56980.53;5029362;28;20033;-82
2024/02/11 02:08:10;;;;;;;13.18;9.80;;;7.50;99.90;;;-144.05;90.60;56999.63;5014765;28;20045;-82
2024/02/11 02:10:37;;;;;;;12.15;9.35;;;7.30;99.90;;;-144.05;90.80;57010.25;5015301;28;20037;-80
2024/02/11 02:13:03;;;;;;;12.25;8.70;;;7.50;99.90;;;-144.05;90.75;56999.63;5013407;28;20030;-81
2024/02/11 02:15:29;;;;;;;13.05;8.88;;;9.00;99.90;;;-144.05;91.07;57020.88;5013149;28;20025;-78
2024/02/11 02:17:55;;;;;;;12.23;9.02;;;7.30;99.90;;;-144.05;91.18;57016.63;5029830;28;20040;-81
2024/02/11 02:20:21;;;;;;;14.82;9.80;;;11.00;99.90;;;-144.05;91.13;56999.63;5012498;28;20428;-81
2024/02/11 02:22:50;;;;;;;10.65;7.93;;;9.20;99.90;;;-144.05;91.23;57025.13;5028282;28;20030;-80
2024/02/11 02:25:16;;;;;;;14.10;8.45;;;9.10;99.90;;;-144.05;91.07;56993.25;5014982;28;20026;-79
2024/02/11 02:27:43;;;;;;;12.82;8.93;;;9.50;99.90;;;-144.05;91.21;57031.50;5013191;28;20156;-79
2024/02/11 02:30:10;;;;;;;12.85;8.98;;;7.80;99.90;;;-144.05;91.25;57001.75;5013450;28;20041;-79
2024/02/11 02:32:36;;;;;;;12.77;9.45;;;;;;;-144.05;91.28;57016.63;5013138;28;20018;-81
2024/02/11 02:35:05;;;;;;;14.93;9.80;;;7.40;99.90;;;-144.05;91.09;57001.75;5016177;28;20075;-83
2024/02/11 02:37:31;;;;;;;12.50;8.90;;;9.20;99.90;;;-144.05;91.30;57003.88;5019043;28;20115;-83
2024/02/11 02:39:57;;;;;;;13.48;9.57;;;9.00;99.90;;;-144.05;91.21;57006.00;5018673;28;20045;-83
2024/02/11 02:42:23;;;;;;;18.02;10.57;;;7.60;99.90;;;-144.05;91.15;57010.25;5018169;28;20025;-83
2024/02/11 02:44:48;;;;;;;17.75;10.60;;;8.90;99.90;;;-144.05;91.43;57033.63;5017689;28;20030;-81
2024/02/11 02:47:15;;;;;;;11.10;8.43;;;;;;;-144.05;91.29;57025.13;5016840;28;20022;-81
2024/02/11 02:49:42;;;;;;;14.95;11.00;;;9.20;99.90;;;-144.05;91.93;57040.00;5015279;28;20044;-82
2024/02/11 02:52:08;;;;;;;15.82;10.77;;;7.20;99.90;;;-144.05;91.84;56999.63;5016450;28;20022;-81
2024/02/11 02:54:35;;;;;;;14.02;10.48;;;8.10;99.90;;;-144.05;91.69;57018.75;5016196;28;20041;-81
2024/02/11 02:57:01;;;;;;;14.52;10.13;;;7.80;99.90;;;-144.05;91.26;57014.50;5015936;28;20085;-80
2024/02/11 02:59:26;;;;;;;14.68;10.13;;;9.20;99.90;;;-144.05;91.66;56993.25;5013449;28;20053;-78
2024/02/11 03:01:58;;;;;;;13.65;10.18;;;7.40;99.90;;;-144.05;91.43;57003.88;5013633;28;20475;-81
2024/02/11 03:04:25;;;;;;;15.73;10.05;;;;;;;-144.05;91.08;57018.75;5012509;28;20235;-81
2024/02/11 03:06:51;;;;;;;12.75;9.25;;;7.70;99.90;;;-144.05;91.19;57046.38;5012781;28;20041;-79
2024/02/11 03:09:16;;;;;;;12.85;9.38;;;7.60;99.90;;;-144.05;91.48;56989.00;5011655;28;20037;-80
2024/02/11 03:11:42;;;;;;;13.63;9.30;;;;;;;-144.05;91.56;57008.13;5011803;28;20193;-81
2024/02/11 03:14:09;;;;;;;12.15;8.30;;;;;;;-144.05;90.96;57040.00;5012951;28;20036;-80
2024/02/11 03:16:35;;;;;;;12.48;8.30;;;8.50;99.90;;;-144.05;91.31;57040.00;5012263;28;20340;-79
2024/02/11 03:19:00;;;;;;;11.30;8.40;;;7.70;99.90;;;-144.05;91.32;56982.66;5012383;28;20442;-80
2024/02/11 03:21:26;;;;;;;10.90;8.00;;;8.50;99.90;;;-144.05;91.25;57014.50;5011310;28;20472;-80
2024/02/11 03:23:52;;;;;;;14.88;9.52;;;8.60;99.90;;;-144.05;91.19;57014.50;5027821;28;20572;-78
2024/02/11 03:26:18;;;;;;;14.85;10.13;;;8.60;99.90;;;-144.05;91.70;57012.38;5012965;28;20017;-80
2024/02/11 03:28:44;;;;;;;18.42;10.18;;;8.60;99.90;;;-144.05;91.40;57014.50;5012473;28;20499;-81
2024/02/11 03:31:10;;;;;;;15.00;9.10;;;;;;;-144.05;91.51;57025.13;5012515;28;20022;-80
2024/02/11 03:33:36;;;;;;;15.55;10.52;;;7.90;99.90;;;-144.05;91.75;56974.16;5012430;28;20080;-77
2024/02/11 03:36:03;;;;;;;12.82;10.13;;;7.80;99.90;;;-144.05;91.71;57040.00;5011226;28;20038;-81
2024/02/11 03:38:29;;;;;;;15.27;10.35;;;8.20;99.90;;;-144.05;91.64;57035.75;5013238;28;20022;-81
2024/02/11 03:40:56;;;;;;;16.83;10.10;;;7.60;99.90;;;-144.05;91.65;56997.50;5013435;28;20376;-80
2024/02/11 03:43:23;;;;;;;15.98;9.32;;;;;;;-144.05;91.78;57016.63;5011926;28;20026;-81
2024/02/11 03:45:50;;;;;;;15.20;10.82;;;7.50;99.90;;;-144.05;91.86;57012.38;5028008;28;20036;-80
2024/02/11 03:48:20;;;;;;;17.90;10.57;;;8.60;99.90;;;-144.05;91.67;56995.38;5011868;28;20079;-81
2024/02/11 03:50:47;;;;;;;15.95;10.55;;;6.90;99.90;;;-144.05;91.68;57014.50;5011593;28;20099;-81
2024/02/11 03:53:20;;;;;;;15.18;10.68;;;8.80;99.90;;;-144.05;93.08;57046.38;5011951;28;20022;-81
2024/02/11 03:55:46;;;;;;;14.20;10.07;;;8.00;99.90;;;-144.05;92.94;57008.13;5013239;28;20507;-81
2024/02/11 03:58:14;;;;;;;13.85;9.43;;;7.20;99.90;;;-144.05;92.55;57020.88;5013679;28;20100;-80
2024/02/11 04:00:40;;;;;;;14.50;10.55;;;8.80;99.90;;;-144.05;92.29;57031.50;5012927;28;20045;-80
2024/02/11 04:03:08;;;;;;;16.27;9.93;;;7.30;99.90;;;-144.05;92.46;57023.00;5013628;28;20088;-79
2024/02/11 04:05:34;;;;;;;13.98;10.52;;;7.60;99.90;;;-144.05;92.57;57025.13;5013093;28;20747;-81
2024/02/11 04:08:01;;;;;;;17.98;11.23;;;;;;;-144.05;93.32;57023.00;5013720;28;20070;-83
2024/02/11 04:10:36;;;;;;;16.38;11.32;;;7.90;99.90;;;-144.05;93.78;57020.88;5013634;28;20407;-80
2024/02/11 04:13:03;;;;;;;18.23;10.97;;;7.50;99.90;;;-144.05;93.57;57012.38;5028847;28;20040;-82
2024/02/11 04:15:30;;;;;;;16.63;10.85;;;;;;;-144.05;93.26;57029.38;5014122;28;20022;-79
2024/02/11 04:18:07;;;;;;;14.23;9.38;;;;;;;-144.05;93.00;56980.53;5014183;28;20551;-81
2024/02/11 04:20:33;;;;;;;14.48;9.80;;;7.60;99.90;;;-144.05;93.04;56993.25;5012921;28;20117;-80
2024/02/11 04:23:03;;;;;;;14.75;9.10;;;7.40;99.90;;;-144.05;91.94;57003.88;5012200;28;20034;-80
2024/02/11 04:25:34;;;;;;;11.63;8.75;;;10.80;99.90;;;-144.05;91.66;57012.38;5012691;28;20113;-80
2024/02/11 04:28:01;;;;;;;12.18;8.60;;;8.80;99.90;;;-144.05;92.36;57027.25;5011139;28;20394;-80
2024/02/11 04:30:29;;;;;;;12.75;9.55;;;7.20;99.90;;;-144.05;92.34;56997.50;5011091;28;20029;-81
2024/02/11 04:32:59;;;;;;;13.20;9.13;;;7.60;99.90;;;-144.05;92.54;57027.25;5012582;28;20503;-81
2024/02/11 04:35:25;;;;;;;13.35;9.00;;;;;;;-144.05;92.36;56995.38;5014191;28;20025;-75
2024/02/11 04:37:53;;;;;;;13.35;8.88;;;8.40;99.90;;;-144.05;92.24;57008.13;5017614;28;20417;-82
2024/02/11 04:40:21;;;;;;;14.30;9.05;;;8.40;99.90;;;-144.05;92.56;56984.78;5018872;28;20017;-82
2024/02/11 04:42:56;;;;;;;14.40;8.85;;;10.90;99.90;;;-144.05;92.43;57001.75;5018816;28;20029;-81
2024/02/11 04:45:25;;;;;;;14.07;8.85;;;11.20;99.90;;;-144.05;92.38;56980.53;5016087;28;20026;-81
2024/02/11 04:47:58;;;;;;;12.48;8.55;;;8.50;99.90;;;-144.05;92.47;57006.00;5018234;28;20034;-82
2024/02/11 04:50:26;;;;;;;10.45;7.20;;;7.80;99.90;;;-144.05;92.51;57016.63;5016727;28;20069;-80
2024/02/11 04:52:56;;;;;;;12.32;8.05;;;8.60;99.90;;;-144.05;92.06;57003.88;5018523;28;20440;-82
2024/02/11 04:55:38;;;;;;;10.35;7.50;;;11.00;99.90;;;-144.05;92.18;57018.75;5018797;28;20077;-81
2024/02/11 04:58:11;;;;;;;11.93;6.93;;;10.80;99.90;;;-144.05;92.00;57012.38;5034440;28;20038;-81
2024/02/11 05:00:40;;;;;;;14.13;7.45;;;;;;;-144.05;91.93;57003.88;5019310;28;20026;-83
2024/02/11 05:03:06;;;;;;;12.98;8.13;;;10.90;99.90;;;-144.05;92.16;57029.38;5020175;28;20080;-83
2024/02/11 05:05:37;;;;;;;9.82;6.93;;;8.20;99.90;;;-144.05;91.80;57010.25;5018070;28;20052;-81
2024/02/11 05:08:07;;;;;;;11.02;7.10;;;10.80;99.90;;;-144.05;92.27;56982.66;5019021;28;20026;-83
2024/02/11 05:10:39;;;;;;;14.07;8.18;;;8.20;99.90;;;-144.05;92.47;56993.25;5019025;28;20022;-82
2024/02/11 05:13:11;;;;;;;11.20;7.15;;;7.80;99.90;;;-144.05;92.24;56999.63;5020680;28;20026;-81
2024/02/11 05:15:49;;;;;;;10.65;6.80;;;8.20;99.90;;;-144.05;91.03;57008.13;5020635;28;20034;-80
2024/02/11 05:18:15;;;;;;;14.93;7.00;;;10.70;99.90;;;-144.05;91.12;56976.28;5035752;28;20112;-82
2024/02/11 05:20:45;;;;;;;10.93;6.13;;;11.00;99.90;;;-144.05;91.02;56993.25;5020130;28;20030;-83
2024/02/11 05:23:12;;;;;;;10.00;6.82;;;8.10;99.90;;;-144.05;90.77;56980.53;5019588;28;20054;-81
2024/02/11 05:25:43;;;;;;;10.88;6.75;;;11.20;99.90;;;-144.05;90.92;56984.78;5016039;28;20029;-82
2024/02/11 05:28:15;;;;;;;8.68;6.00;;;7.80;99.90;;;-144.05;90.53;56993.25;5020796;28;20393;-83
2024/02/11 05:30:45;;;;;;;7.65;6.00;;;14.20;99.90;;;-144.05;90.49;56993.25;5016002;28;20034;-83
2024/02/11 05:33:13;;;;;;;7.63;5.85;;;11.30;99.90;;;-144.05;90.00;57018.75;5019837;28;20106;-81
2024/02/11 05:35:40;;;;;;;10.63;6.38;;;7.70;99.90;;;-144.05;89.14;56978.41;5012999;28;20077;-82
2024/02/11 05:38:08;;;;;;;7.60;6.00;;;7.90;99.90;;;-144.05;89.14;56997.50;5018785;28;20030;-81
2024/02/11 05:40:45;;;;;;;9.25;6.25;;;7.70;99.90;;;-144.05;88.56;57008.13;5017913;28;20022;-82
2024/02/11 05:43:14;;;;;;;10.00;6.07;;;7.20;99.90;;;-144.05;87.92;56967.78;5021036;28;20034;-83
2024/02/11 05:45:41;;;;;;;8.70;5.60;;;7.50;99.90;;;-144.05;87.43;56993.25;5017481;28;20029;-82
2024/02/11 05:48:11;;;;;;;10.23;6.05;;;14.40;99.90;;;-144.05;87.12;56989.00;5020431;28;20029;-82
2024/02/11 05:50:37;;;;;;;10.02;5.60;;;7.00;99.90;;;-144.05;87.32;57010.25;5015369;28;20030;-82
2024/02/11 05:53:04;;;;;;;10.38;6.55;;;13.90;99.90;;;-144.05;86.72;56986.91;5022338;28;20638;-79
2024/02/11 05:55:31;;;;;;;10.57;6.20;;;7.20;99.90;;;-144.05;86.46;57003.88;5018996;28;20018;-81
2024/02/11 05:57:56;;;;;;;10.00;5.88;;;10.70;99.90;;;-144.05;86.40;57010.25;5014815;28;20441;-79
2024/02/11 06:00:31;;;;;;;9.07;6.15;;;10.70;99.90;;;-144.05;86.49;57018.75;5016496;28;20029;-78
2024/02/11 06:02:59;;;;;;;7.10;5.55;;;;;;;-144.05;86.34;57010.25;5016371;28;20030;-78
2024/02/11 06:05:25;;;;;;;11.25;6.05;;;11.10;99.90;;;-144.05;86.18;57001.75;5013792;28;20041;-79
2024/02/11 06:07:55;;;;;;;8.85;5.78;;;9.70;99.90;;;-144.05;86.73;57018.75;5015127;28;20126;-80
2024/02/11 06:10:25;;;;;;;8.70;5.43;;;9.70;99.90;;;-144.05;86.22;56997.50;5013950;28;20021;-78
2024/02/11 06:12:52;;;;;;;9.23;5.82;;;14.20;99.90;;;-144.05;86.00;57003.88;5014662;28;20113;-78
2024/02/11 06:15:24;;;;;;;8.35;5.32;;;8.10;99.90;;;-144.05;85.73;57003.88;5029648;28;20018;-78
2024/02/11 06:17:53;;;;;;;9.40;6.00;;;9.70;99.90;;;-144.05;85.94;56993.25;5013908;28;20388;-79
2024/02/11 06:20:20;;;;;;;7.70;5.22;;;8.50;99.90;;;-144.05;86.22;57014.50;5015452;28;20068;-78
2024/02/11 06:22:53;;;;;;;8.43;5.20;;;7.50;99.90;;;-144.05;85.88;56986.91;5015212;28;20105;-79
2024/02/11 06:25:20;;;;;;;16.88;5.53;;;7.50;99.90;;;-144.05;85.43;57018.75;5015638;28;20018;-78
2024/02/11 06:27:50;;;;;;;6.40;5.30;;;14.50;99.90;;;-144.05;85.12;56995.38;5014313;28;20040;-80
2024/02/11 06:30:18;;;;;;;6.95;5.07;;;11.10;99.90;;;-144.05;85.59;57003.88;5014511;28;20387;-80
2024/02/11 06:32:51;;;;;;;6.47;4.80;;;8.80;99.90;;;-144.05;85.17;57010.25;5015148;28;20483;-77
2024/02/11 06:35:19;;;;;;;6.60;4.90;;;;;;;-144.05;85.17;57016.63;5015347;28;20065;-80
2024/02/11 06:37:49;;;;;;;6.93;5.03;;;10.00;99.90;;;-144.05;85.37;57003.88;5014752;28;20071;-81
2024/02/11 06:40:25;;;;;;;7.28;5.10;;;7.90;99.90;;;-144.05;85.39;57027.25;5014929;28;20106;-79
2024/02/11 06:42:51;;;;;;;7.65;5.28;;;7.10;99.90;;;-144.05;85.49;56999.63;5019080;28;20033;-79
2024/02/11 06:45:19;;;;;;;6.55;4.50;;;8.10;99.90;;;-144.05;85.23;57006.00;5033622;28;20115;-82
2024/02/11 06:47:46;;;;;;;7.00;4.82;;;;;;;-144.05;85.10;57008.13;5016964;28;20030;-82
2024/02/11 06:50:18;;;;;;;7.60;4.75;;;8.50;99.90;;;-144.05;85.24;56991.13;5017787;28;20026;-79
2024/02/11 06:52:48;;;;;;;5.93;4.57;;;7.50;99.90;;;-144.05;84.34;57035.75;5017446;28;20399;-80
2024/02/11 06:55:18;;;;;;;6.53;4.45;;;10.20;99.90;;;-144.05;84.08;57010.25;5016539;28;20487;-81
2024/02/11 06:57:44;;;;;;;5.82;4.40;;;7.20;99.90;;;-144.05;84.72;56997.50;5015377;28;20034;-80
2024/02/11 07:00:14;;;;;;;4.65;3.67;;;8.20;99.90;;;-144.05;83.79;57001.75;5031333;28;20053;-81
2024/02/11 07:02:41;;;;;;;4.95;3.95;;;;;;;-144.05;83.54;57010.25;5009689;28;20427;-80
2024/02/11 07:05:11;;;;;;;5.55;3.60;;;8.30;99.90;;;-144.05;84.36;56999.63;5015648;28;20066;-79
2024/02/11 07:07:37;;;;;;;5.63;3.10;;;7.50;99.90;;;-144.05;83.82;57012.38;5015350;28;20041;-76
2024/02/11 07:10:04;;;;;;;5.63;2.85;;;7.00;99.90;;;-144.05;84.40;57008.13;5030010;28;20026;-78
2024/02/11 07:12:30;;;;;;;5.60;2.42;;;7.90;99.90;;;-144.05;84.17;57006.00;5013112;28;20502;-78
2024/02/11 07:14:55;;;;;;;1.55;1.25;;;14.00;99.90;;;-144.05;85.21;57018.75;5029505;28;20030;-79
2024/02/11 07:17:21;;;;;;;1.40;1.27;;;7.50;99.90;;;-144.05;84.86;57023.00;5012827;28;20029;-79
2024/02/11 07:19:48;;;;;;;1.50;1.00;;;;;;;-144.05;84.51;57001.75;5014580;28;20057;-79
2024/02/11 07:22:14;;;;;;;1.02;0.93;;;;;;;-144.05;85.47;57014.50;5028656;28;20121;-78
2024/02/11 07:24:43;;;;;;;1.65;1.38;;;;;;;-144.05;85.82;57023.00;5015516;28;20021;-79
2024/02/11 07:27:14;;;;;;;1.30;1.20;;;7.10;99.90;;;-144.05;85.04;57042.13;5023780;28;20026;-77
2024/02/11 07:29:43;;;;;;;1.70;1.60;;;7.00;99.90;;;-144.05;85.59;57010.25;5019623;28;20057;-78
2024/02/11 07:32:10;;;;;;;3.13;1.90;;;10.60;99.90;;;-144.05;86.71;57012.38;5025280;28;20042;-78
2024/02/11 07:34:39;;;;;;;3.33;2.30;;;7.10;99.90;;;-144.05;85.87;57006.00;5022761;28;20094;-78
2024/02/11 07:37:06;;;;;;;4.30;2.33;;;;;;;-144.05;86.04;57014.50;5015125;28;20026;-79
2024/02/11 07:39:32;;;;;;;7.88;2.65;;;;;;;-144.05;87.02;57003.88;5015757;28;20037;-79
2024/02/11 07:41:58;;;;;;;5.13;2.85;;;;;;;-144.05;86.73;56993.25;5021559;28;20060;-77
2024/02/11 07:44:25;;;;;;;6.88;2.92;;;7.20;99.90;;;-144.05;86.46;57018.75;5013338;28;20480;-76
2024/02/11 07:46:54;;;;;;;6.13;2.85;;;;;;;-144.05;86.45;57040.00;5013338;28;20073;-79
2024/02/11 07:49:23;;;;;;;7.70;2.80;;;8.40;99.90;;;-144.05;86.01;57027.25;5011638;28;20034;-78
2024/02/11 07:51:50;;;;;;;8.77;3.40;;;;;;;-144.05;86.11;57001.75;5013277;28;20021;-78
2024/02/11 07:54:18;;;;;;;4.40;2.60;;;;;;;-144.05;85.72;57040.00;5013035;28;20030;-78
2024/02/11 07:56:44;;;;;;;7.43;3.83;;;;;;;-144.05;85.21;57027.25;5012770;28;20036;-79
2024/02/11 07:59:11;;;;;;;8.07;2.95;;;;;;;-144.05;84.89;57029.38;5013576;28;20030;-79
2024/02/11 08:01:37;;;;;;;5.93;2.38;;;9.10;99.90;;;-144.05;84.02;57029.38;5007726;28;20034;-79
2024/02/11 08:04:04;;;;;;;8.52;3.22;;;;;;;-144.05;83.73;57033.63;5014699;28;20137;-78
2024/02/11 08:06:30;;;;;;;12.52;3.20;;;;;;;-144.05;83.39;57010.25;5014513;28;20030;-79
2024/02/11 08:08:56;;;;;;;8.45;2.60;;;7.00;99.90;;;-144.05;82.88;57044.25;5012546;28;20069;-79
2024/02/11 08:11:23;;;;;;;8.15;2.28;;;;;;;-144.05;82.74;57014.50;5012270;28;20030;-78
2024/02/11 08:13:54;;;;;;;10.07;2.75;;;6.90;99.90;;;-144.05;82.34;57044.25;5013518;28;20590;-78
2024/02/11 08:16:22;;;;;;;6.10;2.33;;;;;;;-144.05;81.85;57010.25;5012575;28;20068;-77
2024/02/11 08:18:50;;;;;;;12.48;2.45;;;8.60;99.90;;;-144.05;81.34;57003.88;5014075;28;20040;-77
2024/02/11 08:21:16;;;;;;;5.30;1.80;;;;;;;-144.05;81.22;57018.75;5013638;28;20018;-79
2024/02/11 08:23:42;;;;;;;11.27;3.70;;;;;;;-144.05;80.76;57029.38;5013155;28;20121;-80
2024/02/11 08:26:08;;;;;;;7.55;2.55;;;10.90;99.90;;;-144.05;80.71;57012.38;5014447;28;20041;-78
2024/02/11 08:28:35;;;;;;;7.47;2.83;;;10.60;99.90;;;-144.05;80.56;57006.00;5014794;28;20475;-79
2024/02/11 08:31:03;;;;;;;11.27;2.60;;;;;;;-144.05;80.60;57010.25;5014228;28;20022;-77
2024/02/11 08:33:29;;;;;;;9.45;2.60;;;7.10;99.90;;;-144.05;79.62;57048.50;5014701;28;20472;-79
2024/02/11 08:35:54;;;;;;;15.10;2.80;;;10.80;99.90;;;-144.05;79.99;57001.75;5014110;28;20037;-78
2024/02/11 08:38:20;;;;;;;15.77;2.63;;;11.00;99.90;;;-144.05;79.53;57014.50;5013030;28;20022;-78
2024/02/11 08:40:47;;;;;;;9.05;2.53;;;;;;;-144.05;79.15;57023.00;5012346;28;20243;-77
2024/02/11 08:43:12;;;;;;;9.75;2.50;;;7.10;99.90;;;-144.05;80.11;57020.88;5012192;28;20495;-79
2024/02/11 08:45:38;;;;;;;9.95;3.20;;;10.20;99.90;;;-144.05;79.87;57044.25;5011590;28;20030;-78
2024/02/11 08:48:05;;;;;;;7.03;2.63;;;;;;;-144.05;79.57;57027.25;5012267;28;20030;-79
2024/02/11 08:50:31;;;;;;;8.90;2.88;;;8.20;99.90;;;-144.05;79.16;57025.13;5010747;28;20022;-79
2024/02/11 08:52:59;;;;;;;10.70;2.58;;;;;;;-144.05;78.93;57044.25;5013278;28;20491;-80
2024/02/11 08:55:25;;;;;;;11.20;3.10;;;8.20;99.90;;;-144.05;79.04;56991.13;5028191;28;20034;-77
2024/02/11 08:57:51;;;;;;;9.82;3.30;;;10.60;99.90;;;-144.05;79.07;57006.00;5013520;28;20022;-77
2024/02/11 09:00:18;;;;;;;9.15;3.10;;;7.10;99.90;;;-144.05;79.69;57035.75;5013706;28;20414;-78
2024/02/11 09:02:47;;;;;;;10.93;3.95;;;7.40;99.90;;;-144.05;79.47;57001.75;5012977;28;20030;-78
2024/02/11 09:05:13;;;;;;;9.45;4.07;;;7.20;99.90;;;-144.05;79.92;57016.63;5012655;28;20045;-79
2024/02/11 09:07:39;;;;;;;13.88;3.47;;;10.80;99.90;;;-144.05;80.39;57033.63;5029986;28;20034;-78
2024/02/11 09:10:06;;;;;;;12.25;3.35;;;7.60;99.90;;;-144.05;80.47;57014.50;5013610;28;20121;-76
2024/02/11 09:12:34;;;;;;;14.02;4.35;;;10.70;99.90;;;-144.05;79.67;57014.50;5011215;28;20041;-76
2024/02/11 09:15:00;;;;;;;13.68;3.53;;;6.90;99.90;;;-144.05;80.44;57001.75;5013510;28;20033;-79
2024/02/11 09:17:27;;;;;;;11.13;3.65;;;7.20;99.90;;;-144.05;80.12;57010.25;5011496;28;20065;-78
2024/02/11 09:19:53;;;;;;;13.88;4.07;;;7.80;99.90;;;-144.05;80.06;57018.75;5012745;28;20117;-78
2024/02/11 09:22:19;;;;;;;14.18;3.95;;;;;;;-144.05;79.53;57031.50;5029132;28;20034;-78
2024/02/11 09:24:45;;;;;;;10.10;3.78;;;6.90;99.90;;;-144.05;80.09;57006.00;5018300;28;20416;-79
2024/02/11 09:27:12;;;;;;;14.40;4.20;;;;;;;-144.05;79.94;57010.25;5016276;28;20068;-78
2024/02/11 09:29:38;;;;;;;12.70;4.15;;;;;;;-144.05;79.61;57010.25;5009483;28;20030;-80
2024/02/11 09:32:06;;;;;;;12.10;3.72;;;8.30;99.90;;;-144.05;79.38;57020.88;5016734;28;20053;-79
2024/02/11 09:34:31;;;;;;;14.07;3.67;;;10.70;99.90;;;-144.05;79.91;57016.63;5032935;28;20076;-79
2024/02/11 09:36:58;;;;;;;11.15;3.55;;;;;;;-144.05;79.52;57020.88;5016818;28;20034;-79
2024/02/11 09:39:24;;;;;;;10.75;3.92;;;7.20;99.90;;;-144.05;79.81;57059.09;5031513;28;20057;-78
2024/02/11 09:41:50;;;;;;;10.65;3.97;;;10.80;99.90;;;-144.05;79.77;57018.75;5015498;28;20022;-79
2024/02/11 09:44:22;;;;;;;13.18;3.85;;;7.50;99.90;;;-144.05;80.30;57020.88;5015634;28;20032;-77
2024/02/11 09:46:52;;;;;;;11.48;3.65;;;9.00;99.90;;;-144.05;80.12;57003.88;5015185;28;20055;-79
2024/02/11 09:49:20;;;;;;;9.70;3.88;;;7.20;99.90;;;-144.05;80.82;57048.50;5016769;28;20030;-79
2024/02/11 09:51:50;;;;;;;9.60;3.88;;;10.80;99.90;;;-144.05;80.66;57001.75;5015709;28;20030;-78
2024/02/11 09:54:21;;;;;;;10.57;4.40;;;11.00;99.90;;;-144.05;80.82;57029.38;5016480;28;20034;-80
2024/02/11 09:56:47;;;;;;;12.32;4.07;;;;;;;-144.05;80.82;57029.38;5017372;28;20480;-77
2024/02/11 09:59:13;;;;;;;7.95;3.78;;;14.00;99.90;;;-144.05;81.09;57020.88;5016804;28;20064;-77
2024/02/11 10:01:41;;;;;;;10.63;3.45;;;;;;;-144.05;81.64;57029.38;5017602;28;20080;-78
2024/02/11 10:04:11;;;;;;;9.52;4.20;;;8.80;99.90;;;-144.05;82.11;57031.50;5017832;28;20030;-79
2024/02/11 10:06:42;;;;;;;7.20;3.85;;;8.80;99.90;;;-144.05;82.25;57023.00;5015745;28;20040;-79
2024/02/11 10:09:12;;;;;;;8.90;4.43;;;7.30;99.90;;;-144.05;83.01;57018.75;5017889;28;20121;-77
2024/02/11 10:11:39;;;;;;;10.45;4.00;;;8.80;99.90;;;-144.05;83.49;56999.63;5008688;28;20029;-78
2024/02/11 10:14:11;;;;;;;7.38;3.20;;;6.90;99.90;;;-144.05;83.38;57027.25;5017102;28;20036;-78
2024/02/11 10:16:38;;;;;;;5.57;3.72;;;;;;;-144.05;83.32;57008.13;5016114;28;20036;-77
2024/02/11 10:19:06;;;;;;;9.00;4.55;;;;;;;-144.05;83.27;56997.50;5017461;28;20069;-78
2024/02/11 10:21:34;;;;;;;9.38;3.97;;;;;;;-144.05;84.16;57020.88;5033877;28;20120;-78